Time;durP1;ratioP1;P1;durP2;ratioP2;P2;SDS_P1;SDS_P2;PMS_P1;PMS_P2;Temp;Humidity;BMP_temperature;BMP_pressure;BME280_temperature;BME280_humidity;BME280_pressure;Samples;Min_cycle;Max_cycle;Signal;HPM_P1;HPM_P2
2022/07/19 00:08:26;;;;;;;3.25;1.60;;;21.90;56.10;;;;;;20520556;28;20122;-85
2022/07/19 00:18:27;;;;;;;3.53;1.80;;;21.90;56.00;;;;;;20516711;28;20031;-83
2022/07/19 00:28:28;;;;;;;4.32;1.40;;;21.90;56.00;;;;;;20544050;28;20098;-84
2022/07/19 00:38:28;;;;;;;3.38;1.63;;;22.00;56.10;;;;;;20526418;28;20034;-85
2022/07/19 00:48:29;;;;;;;3.47;1.40;;;21.90;56.00;;;;;;20522584;28;20137;-84
2022/07/19 00:58:29;;;;;;;2.10;1.27;;;21.90;56.00;;;;;;20832456;23;20046;-84
2022/07/19 01:08:31;;;;;;;1.50;1.17;;;21.90;56.00;;;;;;20505624;28;20555;-84
2022/07/19 01:18:32;;;;;;;3.20;1.85;;;21.90;55.90;;;;;;20511389;28;20043;-83
2022/07/19 01:28:32;;;;;;;2.90;1.52;;;21.90;55.90;;;;;;20509424;28;20130;-84
2022/07/19 01:38:33;;;;;;;1.60;1.23;;;21.80;55.80;;;;;;20507741;28;20042;-84
2022/07/19 01:48:34;;;;;;;3.78;1.52;;;21.90;55.80;;;;;;20530539;28;20043;-82
2022/07/19 01:58:34;;;;;;;2.60;1.50;;;21.90;56.40;;;;;;20507732;28;20551;-83
2022/07/19 02:08:36;;;;;;;3.20;1.80;;;21.80;55.70;;;;;;20542134;28;20043;-82
2022/07/19 02:18:37;;;;;;;2.80;1.40;;;21.80;55.70;;;;;;20541021;28;20023;-84
2022/07/19 02:28:38;;;;;;;3.00;1.80;;;21.80;55.70;;;;;;20552197;28;20075;-85
2022/07/19 02:38:39;;;;;;;2.50;1.50;;;21.80;55.60;;;;;;20521284;28;20101;-84
2022/07/19 02:48:39;;;;;;;2.47;1.40;;;21.80;55.60;;;;;;20562593;28;20044;-83
2022/07/19 02:58:40;;;;;;;1.77;1.13;;;21.80;55.60;;;;;;20516008;28;20038;-83
2022/07/19 03:08:40;;;;;;;2.90;1.37;;;21.70;55.50;;;;;;20535051;28;20043;-84
2022/07/19 03:18:41;;;;;;;2.60;1.55;;;21.70;55.50;;;;;;20536940;28;20426;-84
2022/07/19 03:28:42;;;;;;;2.75;1.48;;;21.70;55.50;;;;;;20531264;28;20070;-83
2022/07/19 03:38:42;;;;;;;2.50;1.48;;;21.70;55.40;;;;;;20546468;28;20118;-83
2022/07/19 03:48:43;;;;;;;2.53;1.63;;;21.70;55.30;;;;;;20528162;28;20038;-84
2022/07/19 03:58:44;;;;;;;1.92;1.45;;;21.70;55.30;;;;;;20511534;28;20073;-82
2022/07/19 04:08:44;;;;;;;2.58;1.67;;;21.70;55.20;;;;;;20545737;28;20042;-83
2022/07/19 04:18:45;;;;;;;2.65;1.50;;;21.60;55.10;;;;;;20547981;28;20035;-83
2022/07/19 04:28:46;;;;;;;6.80;1.70;;;21.60;55.10;;;;;;20541624;28;20048;-82
2022/07/19 04:38:46;;;;;;;2.17;1.48;;;21.60;55.00;;;;;;20524405;28;20118;-81
2022/07/19 04:48:47;;;;;;;2.50;1.63;;;21.60;55.00;;;;;;20539016;28;20051;-83
2022/07/19 04:58:47;;;;;;;2.40;1.45;;;21.60;54.90;;;;;;20528359;28;20122;-81
2022/07/19 05:08:48;;;;;;;2.20;1.50;;;21.60;54.90;;;;;;20518545;28;20039;-82
2022/07/19 05:18:48;;;;;;;2.25;1.20;;;21.60;54.90;;;;;;20535436;28;20552;-80
2022/07/19 05:28:49;;;;;;;2.35;1.30;;;21.60;54.90;;;;;;20541813;28;20134;-83
2022/07/19 05:38:50;;;;;;;3.10;1.90;;;21.70;55.10;;;;;;20528526;28;20026;-80
2022/07/19 05:48:50;;;;;;;1.83;1.08;;;21.70;55.20;;;;;;20537738;28;20054;-84
2022/07/19 05:58:51;;;;;;;2.15;1.50;;;21.70;55.30;;;;;;20516385;28;20126;-83
2022/07/19 06:08:51;;;;;;;2.42;1.70;;;21.70;55.40;;;;;;20536411;28;20080;-82
2022/07/19 06:18:52;;;;;;;4.32;1.50;;;21.80;55.50;;;;;;20497086;28;20035;-85
2022/07/19 06:28:53;;;;;;;2.72;1.30;;;21.80;55.50;;;;;;20514993;28;20397;-78
2022/07/19 06:38:54;;;;;;;2.45;1.42;;;21.80;55.50;;;;;;20533571;28;20038;-78
2022/07/19 06:48:54;;;;;;;2.95;1.70;;;21.90;56.20;;;;;;20530862;28;20057;-76
2022/07/19 06:58:55;;;;;;;2.10;1.52;;;21.90;55.60;;;;;;20510589;28;20042;-77
2022/07/19 07:08:56;;;;;;;2.83;1.80;;;21.90;55.60;;;;;;20496976;29;20118;-84
2022/07/19 07:18:56;;;;;;;3.27;1.70;;;22.00;55.70;;;;;;20529108;28;20038;-81
2022/07/19 07:29:01;;;;;;;3.20;1.75;;;22.00;55.70;;;;;;20512367;28;20186;-78
2022/07/19 07:39:02;;;;;;;3.78;1.27;;;22.10;55.70;;;;;;20512226;28;20039;-79
2022/07/19 07:49:03;;;;;;;2.90;1.80;;;22.10;55.60;;;;;;20487891;28;20043;-76
2022/07/19 07:59:03;;;;;;;2.53;1.25;;;22.20;55.70;;;;;;20502966;28;20397;-84
2022/07/19 08:09:05;;;;;;;2.15;1.30;;;22.20;55.60;;;;;;20496858;28;20489;-81
2022/07/19 08:19:07;;;;;;;2.75;1.70;;;22.20;55.70;;;;;;20513243;28;20042;-81
2022/07/19 08:29:08;;;;;;;5.30;1.77;;;22.20;55.60;;;;;;20499272;28;20090;-82
2022/07/19 08:39:09;;;;;;;4.93;1.60;;;22.30;55.60;;;;;;20460835;28;20130;-82
2022/07/19 08:49:10;;;;;;;2.13;1.60;;;22.30;55.60;;;;;;20520349;28;20750;-91
2022/07/19 08:59:10;;;;;;;2.10;1.23;;;22.30;55.50;;;;;;20494562;28;20039;-90
2022/07/19 09:09:14;;;;;;;1.25;0.90;;;22.30;55.50;;;;;;20466047;29;20035;-91
2022/07/19 09:19:15;;;;;;;1.73;1.38;;;22.40;55.50;;;;;;20466085;29;20482;-88
2022/07/19 09:29:18;;;;;;;1.77;1.08;;;22.30;56.10;;;;;;20520771;28;20055;-89
2022/07/19 09:39:29;;;;;;;2.38;1.10;;;22.40;55.40;;;;;;20528916;28;20034;-90
2022/07/19 09:49:30;;;;;;;2.38;1.65;;;22.40;55.20;;;;;;20488366;28;20489;-77
2022/07/19 09:59:30;;;;;;;2.30;1.45;;;22.40;55.00;;;;;;20477526;29;20122;-77
2022/07/19 10:09:31;;;;;;;1.75;1.08;;;22.40;55.10;;;;;;20479827;28;20043;-75
2022/07/19 10:19:38;;;;;;;1.45;1.10;;;22.50;55.20;;;;;;20474828;28;20065;-79
2022/07/19 10:29:39;;;;;;;1.80;1.02;;;22.50;55.20;;;;;;20481661;28;20054;-75
2022/07/19 10:39:39;;;;;;;2.25;1.15;;;22.50;55.20;;;;;;20512953;28;20038;-78
2022/07/19 10:49:47;;;;;;;1.23;0.85;;;22.50;55.20;;;;;;20486906;29;20105;-75
2022/07/19 10:59:48;;;;;;;3.53;1.50;;;22.50;55.20;;;;;;20496370;29;20520;-76
2022/07/19 11:09:50;;;;;;;1.35;0.90;;;22.50;55.20;;;;;;20498874;28;20126;-78
2022/07/19 11:19:58;;;;;;;1.98;1.00;;;22.50;55.20;;;;;;20481062;28;20035;-76
2022/07/19 11:30:03;;;;;;;1.35;0.98;;;22.60;55.20;;;;;;20487592;28;20401;-77
2022/07/19 11:40:05;;;;;;;1.83;0.80;;;22.60;55.20;;;;;;20504181;28;20086;-74
2022/07/19 11:50:06;;;;;;;2.30;1.30;;;22.60;55.20;;;;;;20471818;28;20047;-74
2022/07/19 12:00:08;;;;;;;1.40;1.05;;;22.60;55.20;;;;;;20490016;29;20434;-75
2022/07/19 12:10:10;;;;;;;1.40;0.80;;;22.60;55.20;;;;;;20490976;29;20100;-77
2022/07/19 12:20:10;;;;;;;1.67;0.82;;;22.60;55.20;;;;;;20512596;28;20039;-75
2022/07/19 12:30:19;;;;;;;1.98;1.00;;;22.70;55.20;;;;;;20474534;28;20047;-76
2022/07/19 12:40:23;;;;;;;0.90;0.77;;;22.70;55.20;;;;;;20473961;29;20039;-75
2022/07/19 12:50:25;;;;;;;;;;;22.70;55.20;;;;;;20489356;29;20078;-78
2022/07/19 13:00:27;;;;;;;0.95;0.63;;;22.90;55.10;;;;;;20473028;28;19915;-76
2022/07/19 13:10:27;;;;;;;1.88;0.65;;;22.80;55.00;;;;;;20457367;29;20043;-76
2022/07/19 13:20:28;;;;;;;1.50;0.80;;;22.90;55.10;;;;;;20472193;29;20039;-77
2022/07/19 13:30:29;;;;;;;1.37;0.70;;;22.90;55.00;;;;;;20478627;28;20039;-75
2022/07/19 13:40:29;;;;;;;1.25;0.73;;;23.00;55.00;;;;;;20461385;28;20808;-76
2022/07/19 13:50:30;;;;;;;1.02;0.60;;;23.00;55.00;;;;;;20538651;28;20141;-75
2022/07/19 14:00:31;;;;;;;0.70;0.47;;;23.10;55.10;;;;;;20552453;28;20043;-78
2022/07/19 14:10:31;;;;;;;0.90;0.75;;;23.10;55.00;;;;;;20550496;28;20398;-73
2022/07/19 14:20:34;;;;;;;2.10;1.05;;;23.20;55.00;;;;;;20525683;28;20125;-74
2022/07/19 14:30:35;;;;;;;1.90;0.90;;;23.30;54.80;;;;;;20595859;28;20042;-73
2022/07/19 14:40:35;;;;;;;2.33;1.00;;;23.50;54.30;;;;;;20540945;28;20035;-72
2022/07/19 14:50:36;;;;;;;2.90;0.63;;;23.60;54.20;;;;;;20531574;28;20126;-73
2022/07/19 15:00:38;;;;;;;2.97;1.05;;;23.70;54.20;;;;;;20505096;28;20055;-76
2022/07/19 15:10:38;;;;;;;2.33;0.90;;;23.80;54.00;;;;;;20590863;28;20070;-79
2022/07/19 15:20:39;;;;;;;1.77;0.80;;;23.80;53.80;;;;;;20478801;28;20050;-81
2022/07/19 15:30:42;;;;;;;2.17;1.03;;;23.90;53.80;;;;;;20518867;28;20031;-81
2022/07/19 15:40:42;;;;;;;2.10;1.30;;;24.00;53.80;;;;;;20478189;29;20031;-76
2022/07/19 15:50:43;;;;;;;2.40;1.00;;;24.10;53.00;;;;;;20505343;28;20054;-76
2022/07/19 16:00:43;;;;;;;2.03;1.20;;;24.20;52.10;;;;;;20459228;28;20493;-77
2022/07/19 16:10:44;;;;;;;3.57;1.03;;;24.20;51.80;;;;;;20519515;28;20125;-74
2022/07/19 16:20:45;;;;;;;3.17;0.97;;;24.30;51.90;;;;;;20520008;28;20094;-73
2022/07/19 16:30:46;;;;;;;1.73;1.00;;;24.30;52.30;;;;;;20519777;28;20110;-74
2022/07/19 16:40:46;;;;;;;1.00;0.60;;;24.20;52.60;;;;;;20523277;28;20035;-73
2022/07/19 16:50:47;;;;;;;1.40;0.70;;;24.10;53.00;;;;;;20536536;28;20039;-75
2022/07/19 17:00:47;;;;;;;1.10;0.45;;;24.10;53.20;;;;;;20479447;28;20322;-75
2022/07/19 17:10:48;;;;;;;0.93;0.70;;;24.10;53.30;;;;;;20515018;28;20043;-74
2022/07/19 17:20:48;;;;;;;1.58;0.70;;;24.20;53.50;;;;;;20517076;28;20485;-74
2022/07/19 17:30:49;;;;;;;1.10;0.50;;;24.10;53.60;;;;;;20516275;28;20073;-74
2022/07/19 17:40:50;;;;;;;1.10;0.87;;;24.10;53.90;;;;;;20524309;28;20063;-74
2022/07/19 17:50:50;;;;;;;0.85;0.60;;;24.00;54.00;;;;;;20489755;28;20128;-75
2022/07/19 18:00:51;;;;;;;0.40;0.30;;;24.00;54.20;;;;;;20490455;28;20098;-74
2022/07/19 18:10:51;;;;;;;1.65;0.60;;;24.00;54.30;;;;;;20531295;28;20127;-73
2022/07/19 18:20:53;;;;;;;0.68;0.52;;;24.00;54.40;;;;;;20515313;28;20094;-73
2022/07/19 18:30:54;;;;;;;0.80;0.50;;;24.00;54.50;;;;;;20519911;28;20399;-74
2022/07/19 18:40:54;;;;;;;0.65;0.45;;;24.00;54.70;;;;;;20512096;28;20070;-73
2022/07/19 18:50:59;;;;;;;0.40;0.28;;;24.00;54.70;;;;;;20487905;28;20050;-70
2022/07/19 19:00:59;;;;;;;2.38;0.40;;;24.00;54.90;;;;;;20500903;28;20047;-73
2022/07/19 19:11:01;;;;;;;0.82;0.50;;;23.90;54.90;;;;;;20528396;28;20081;-73
2022/07/19 19:21:02;;;;;;;3.75;0.98;;;23.90;55.10;;;;;;20542628;28;20067;-72
2022/07/19 19:31:03;;;;;;;1.15;0.35;;;23.90;55.20;;;;;;20526709;28;20134;-71
2022/07/19 19:41:03;;;;;;;0.40;0.38;;;23.90;55.40;;;;;;20526742;28;20031;-72
2022/07/19 19:51:04;;;;;;;0.70;0.40;;;23.90;55.50;;;;;;20498671;28;20090;-70
2022/07/19 20:01:05;;;;;;;0.75;0.38;;;23.90;55.60;;;;;;20498357;28;20047;-71
2022/07/19 20:11:06;;;;;;;0.60;0.40;;;23.90;55.70;;;;;;20515126;28;20039;-72
2022/07/19 20:21:07;;;;;;;0.60;0.28;;;23.90;55.80;;;;;;20504147;28;20027;-71
2022/07/19 20:31:08;;;;;;;0.85;0.40;;;23.90;55.90;;;;;;20483691;28;20485;-71
2022/07/19 20:41:08;;;;;;;1.10;0.32;;;23.80;55.90;;;;;;20455411;28;20063;-72
2022/07/19 20:51:09;;;;;;;1.30;0.40;;;23.90;56.00;;;;;;20480022;28;20035;-72
2022/07/19 21:01:09;;;;;;;2.00;0.67;;;23.90;56.10;;;;;;20449125;28;20089;-71
2022/07/19 21:11:10;;;;;;;2.33;0.30;;;23.80;56.00;;;;;;20482417;28;20709;-71
2022/07/19 21:21:10;;;;;;;0.50;0.40;;;23.80;56.10;;;;;;20486359;28;20363;-71
2022/07/19 21:31:11;;;;;;;2.72;0.55;;;23.80;56.10;;;;;;20480181;28;20432;-72
2022/07/19 21:41:12;;;;;;;0.40;0.40;;;23.80;56.20;;;;;;20478099;28;20568;-72
2022/07/19 21:51:12;;;;;;;0.43;0.40;;;23.80;56.20;;;;;;20484133;28;20035;-71
2022/07/19 22:01:13;;;;;;;1.25;0.43;;;23.80;56.30;;;;;;20515460;28;20381;-71
2022/07/19 22:11:13;;;;;;;1.47;0.50;;;23.80;56.30;;;;;;20503420;28;20126;-71
2022/07/19 22:21:14;;;;;;;1.05;0.50;;;23.80;56.30;;;;;;20482927;28;20337;-71
2022/07/19 22:31:15;;;;;;;1.10;0.50;;;23.80;56.30;;;;;;20510063;28;20141;-70
2022/07/19 22:41:15;;;;;;;0.70;0.50;;;23.80;56.30;;;;;;20530946;28;20035;-73
2022/07/19 22:51:16;;;;;;;1.15;0.60;;;23.80;56.30;;;;;;20537032;28;20035;-72
2022/07/19 23:01:17;;;;;;;1.23;0.68;;;23.80;56.30;;;;;;20484385;28;20043;-70
2022/07/19 23:11:17;;;;;;;0.93;0.52;;;23.80;56.30;;;;;;20529384;28;20047;-71
2022/07/19 23:21:18;;;;;;;1.13;0.77;;;23.80;56.30;;;;;;20526837;28;20440;-71
2022/07/19 23:31:18;;;;;;;0.52;0.45;;;23.80;56.30;;;;;;20545786;28;20538;-71
2022/07/19 23:41:19;;;;;;;1.70;1.00;;;23.80;56.20;;;;;;20512602;28;20477;-71
2022/07/19 23:51:20;;;;;;;1.55;0.77;;;23.80;56.30;;;;;;20480062;28;20040;-72
